createdAt,value
2023-04-08T00:00:35.160Z,100.00
2023-04-08T00:01:37.245Z,100.00
2023-04-08T00:02:39.612Z,100.00
2023-04-08T00:03:41.857Z,100.00
2023-04-08T00:04:46.082Z,100.00
2023-04-08T00:05:48.304Z,100.00
2023-04-08T00:06:50.446Z,100.00
2023-04-08T00:07:52.443Z,100.00
2023-04-08T00:08:54.486Z,100.00
2023-04-08T00:09:56.474Z,100.00
2023-04-08T00:10:58.635Z,100.00
2023-04-08T00:12:00.488Z,100.00
2023-04-08T00:13:02.516Z,100.00
2023-04-08T00:14:04.537Z,100.00
2023-04-08T00:15:07.028Z,100.00
2023-04-08T00:16:09.206Z,100.00
2023-04-08T00:17:11.163Z,100.00
2023-04-08T00:18:14.663Z,100.00
2023-04-08T00:19:16.584Z,100.00
2023-04-08T00:20:18.965Z,100.00
2023-04-08T00:21:21.251Z,100.00
2023-04-08T00:22:23.282Z,100.00
2023-04-08T00:23:25.391Z,100.00
2023-04-08T00:24:27.456Z,100.00
2023-04-08T00:25:30.034Z,100.00
2023-04-08T00:26:33.273Z,100.00
2023-04-08T00:27:35.313Z,100.00
2023-04-08T00:28:37.901Z,100.00
2023-04-08T00:29:39.834Z,100.00
2023-04-08T00:30:43.513Z,100.00
2023-04-08T00:31:45.702Z,100.00
2023-04-08T00:32:47.608Z,100.00
2023-04-08T00:33:50.207Z,100.00
2023-04-08T00:34:52.108Z,100.00
2023-04-08T00:35:54.179Z,100.00
2023-04-08T00:36:56.530Z,100.00
2023-04-08T00:37:59.252Z,100.00
2023-04-08T00:39:02.045Z,100.00
2023-04-08T00:40:05.818Z,100.00
2023-04-08T00:41:07.911Z,100.00
2023-04-08T00:42:11.248Z,100.00
2023-04-08T00:43:13.343Z,100.00
2023-04-08T00:44:15.434Z,100.00
2023-04-08T00:45:17.460Z,100.00
2023-04-08T00:46:20.869Z,100.00
2023-04-08T00:47:23.441Z,100.00
2023-04-08T00:48:25.391Z,100.00
2023-04-08T00:49:27.679Z,100.00
2023-04-08T00:50:29.769Z,100.00
2023-04-08T00:51:31.769Z,100.00
2023-04-08T00:52:33.698Z,100.00
2023-04-08T00:53:35.943Z,100.00
2023-04-08T00:54:38.045Z,100.00
2023-04-08T00:55:40.241Z,100.00
2023-04-08T00:56:43.741Z,100.00
2023-04-08T00:57:46.923Z,100.00
2023-04-08T00:58:50.823Z,100.00
2023-04-08T00:59:53.111Z,100.00
2023-04-08T01:01:01.751Z,100.00
2023-04-08T01:02:38.871Z,100.00
2023-04-08T01:03:47.605Z,100.00
2023-04-08T01:04:53.513Z,100.00
2023-04-08T01:06:17.260Z,100.00
2023-04-08T01:07:25.803Z,100.00
2023-04-08T01:08:30.249Z,100.00
2023-04-08T01:09:34.965Z,100.00
2023-04-08T01:10:40.247Z,100.00
2023-04-08T01:11:44.082Z,100.00
2023-04-08T01:12:55.504Z,100.00
2023-04-08T01:13:57.646Z,100.00
2023-04-08T01:15:06.427Z,100.00
2023-04-08T01:16:12.284Z,100.00
2023-04-08T01:17:16.632Z,100.00
2023-04-08T01:18:20.655Z,100.00
2023-04-08T01:19:29.103Z,100.00
2023-04-08T01:20:31.877Z,100.00
2023-04-08T01:21:36.829Z,100.00
2023-04-08T01:22:59.478Z,100.00
2023-04-08T01:24:15.227Z,100.00
2023-04-08T01:25:20.723Z,100.00
2023-04-08T01:26:25.439Z,100.00
2023-04-08T01:27:31.156Z,100.00
2023-04-08T01:28:34.972Z,100.00
2023-04-08T01:29:38.336Z,100.00
2023-04-08T01:30:42.126Z,100.00
2023-04-08T01:31:45.471Z,100.00
2023-04-08T01:32:48.905Z,100.00
2023-04-08T01:33:51.964Z,100.00
2023-04-08T01:34:57.123Z,100.00
2023-04-08T01:36:01.043Z,100.00
2023-04-08T01:37:05.810Z,100.00
2023-04-08T01:38:10.492Z,100.00
2023-04-08T01:39:15.041Z,100.00
2023-04-08T01:40:19.285Z,100.00
2023-04-08T01:41:21.691Z,100.00
2023-04-08T01:42:26.711Z,100.00
2023-04-08T01:43:30.037Z,100.00
2023-04-08T01:44:32.824Z,100.00
2023-04-08T01:45:34.919Z,100.00
2023-04-08T01:46:39.716Z,100.00
2023-04-08T01:47:44.653Z,100.00
2023-04-08T01:48:48.327Z,100.00
2023-04-08T01:49:52.824Z,100.00
2023-04-08T01:50:56.467Z,100.00
2023-04-08T01:52:02.363Z,100.00
2023-04-08T01:53:07.384Z,100.00
2023-04-08T01:54:09.612Z,100.00
2023-04-08T01:55:12.132Z,100.00
2023-04-08T01:56:15.777Z,100.00
2023-04-08T01:57:24.283Z,100.00
2023-04-08T01:58:30.091Z,100.00
2023-04-08T01:59:34.958Z,100.00
2023-04-08T02:00:40.092Z,100.00
2023-04-08T02:01:44.184Z,100.00
2023-04-08T02:02:48.016Z,100.00
2023-04-08T02:03:52.619Z,100.00
2023-04-08T02:04:55.030Z,100.00
2023-04-08T02:05:56.948Z,100.00
2023-04-08T02:07:00.507Z,100.00
2023-04-08T02:08:02.579Z,100.00
2023-04-08T02:09:04.506Z,100.00
2023-04-08T02:10:08.096Z,100.00
2023-04-08T02:11:10.137Z,100.00
2023-04-08T02:12:12.311Z,100.00
2023-04-08T02:13:14.204Z,100.00
2023-04-08T02:14:16.628Z,100.00
2023-04-08T02:15:18.616Z,100.00
2023-04-08T02:16:24.465Z,100.00
2023-04-08T02:17:36.242Z,100.00
2023-04-08T02:18:41.365Z,100.00
2023-04-08T02:21:00.456Z,100.00
2023-04-08T02:22:06.116Z,100.00
2023-04-08T02:23:17.424Z,100.00
2023-04-08T02:24:21.276Z,100.00
2023-04-08T02:25:24.969Z,100.00
2023-04-08T02:26:27.060Z,100.00
2023-04-08T02:27:29.743Z,100.00
2023-04-08T02:28:34.511Z,100.00
2023-04-08T02:29:38.714Z,100.00
2023-04-08T02:30:49.937Z,100.00
2023-04-08T02:31:53.173Z,100.00
2023-04-08T02:32:57.611Z,100.00
2023-04-08T02:34:00.277Z,100.00
2023-04-08T02:35:04.065Z,100.00
2023-04-08T02:36:07.762Z,100.00
2023-04-08T02:37:09.860Z,100.00
2023-04-08T02:38:13.711Z,100.00
2023-04-08T02:39:16.912Z,100.00
2023-04-08T02:40:28.935Z,100.00
2023-04-08T02:41:30.903Z,100.00
2023-04-08T02:42:32.945Z,100.00
2023-04-08T02:43:34.917Z,100.00
2023-04-08T02:44:36.804Z,100.00
2023-04-08T02:45:41.375Z,100.00
2023-04-08T02:46:43.664Z,100.00
2023-04-08T02:47:45.671Z,100.00
2023-04-08T02:48:48.498Z,100.00
2023-04-08T02:49:50.652Z,100.00
2023-04-08T02:50:52.613Z,100.00
2023-04-08T02:51:54.507Z,100.00
2023-04-08T02:52:56.674Z,100.00
2023-04-08T02:53:58.595Z,100.00
2023-04-08T02:55:01.028Z,100.00
2023-04-08T02:56:03.346Z,100.00
2023-04-08T02:57:05.384Z,100.00
2023-04-08T02:58:07.328Z,100.00
2023-04-08T02:59:09.207Z,100.00
2023-04-08T03:00:12.872Z,100.00
2023-04-08T03:01:14.834Z,100.00
2023-04-08T03:02:16.859Z,100.00
2023-04-08T03:03:19.097Z,100.00
2023-04-08T03:04:21.267Z,100.00
2023-04-08T03:05:23.287Z,100.00
2023-04-08T03:06:25.468Z,100.00
2023-04-08T03:07:28.234Z,100.00
2023-04-08T03:08:30.262Z,100.00
2023-04-08T03:09:32.195Z,100.00
2023-04-08T03:10:34.459Z,100.00
2023-04-08T03:11:36.346Z,100.00
2023-04-08T03:12:38.214Z,100.00
2023-04-08T03:13:40.069Z,100.00
2023-04-08T03:14:42.140Z,100.00
2023-04-08T03:15:44.121Z,100.00
2023-04-08T03:16:46.326Z,100.00
2023-04-08T03:17:48.450Z,100.00
2023-04-08T03:18:50.594Z,100.00
2023-04-08T03:19:53.534Z,100.00
2023-04-08T03:20:55.580Z,100.00
2023-04-08T03:21:57.621Z,100.00
2023-04-08T03:22:59.600Z,100.00
2023-04-08T03:24:03.516Z,100.00
2023-04-08T03:25:06.454Z,100.00
2023-04-08T03:26:09.524Z,100.00
2023-04-08T03:27:14.242Z,100.00
2023-04-08T03:28:16.297Z,100.00
2023-04-08T03:29:18.724Z,100.00
2023-04-08T03:30:21.224Z,100.00
2023-04-08T03:31:23.553Z,100.00
2023-04-08T03:32:25.518Z,100.00
2023-04-08T03:33:27.597Z,100.00
2023-04-08T03:34:30.019Z,100.00
2023-04-08T03:35:31.962Z,100.00
2023-04-08T03:36:34.154Z,100.00
2023-04-08T03:37:36.152Z,100.00
2023-04-08T03:38:40.294Z,100.00
2023-04-08T03:39:42.237Z,100.00
2023-04-08T03:40:44.233Z,100.00
2023-04-08T03:41:46.099Z,100.00
2023-04-08T03:42:48.072Z,100.00
2023-04-08T03:43:50.070Z,100.00
2023-04-08T03:44:52.011Z,100.00
2023-04-08T03:45:55.250Z,100.00
2023-04-08T03:46:57.408Z,100.00
2023-04-08T03:47:59.314Z,100.00
2023-04-08T03:49:01.360Z,100.00
2023-04-08T03:50:03.615Z,100.00
2023-04-08T03:51:06.829Z,100.00
2023-04-08T03:52:08.776Z,100.00
2023-04-08T03:53:10.953Z,100.00
2023-04-08T03:54:12.963Z,100.00
2023-04-08T03:55:14.901Z,100.00
2023-04-08T03:56:17.118Z,100.00
2023-04-08T03:57:19.115Z,100.00
2023-04-08T03:58:21.131Z,100.00
2023-04-08T03:59:23.798Z,100.00
2023-04-08T04:00:26.179Z,100.00
2023-04-08T04:01:28.469Z,100.00
2023-04-08T04:02:31.165Z,100.00
2023-04-08T04:03:33.750Z,100.00
2023-04-08T04:04:36.694Z,100.00
2023-04-08T04:05:40.446Z,100.00
2023-04-08T04:06:42.686Z,100.00
2023-04-08T04:07:45.025Z,100.00
2023-04-08T04:08:46.942Z,100.00
2023-04-08T04:09:48.973Z,100.00
2023-04-08T04:10:50.949Z,100.00
2023-04-08T04:11:52.802Z,100.00
2023-04-08T04:12:54.915Z,100.00
2023-04-08T04:13:58.775Z,100.00
2023-04-08T04:15:00.721Z,100.00
2023-04-08T04:16:03.419Z,100.00
2023-04-08T04:17:05.534Z,100.00
2023-04-08T04:18:07.551Z,100.00
2023-04-08T04:19:09.684Z,100.00
2023-04-08T04:20:13.085Z,100.00
2023-04-08T04:21:15.354Z,100.00
2023-04-08T04:22:17.281Z,100.00
2023-04-08T04:23:19.144Z,100.00
2023-04-08T04:24:21.057Z,100.00
2023-04-08T04:25:23.288Z,100.00
2023-04-08T04:26:25.812Z,100.00
2023-04-08T04:27:27.933Z,100.00
2023-04-08T04:28:29.801Z,100.00
2023-04-08T04:29:31.736Z,100.00
2023-04-08T04:30:36.807Z,100.00
2023-04-08T04:31:38.954Z,100.00
2023-04-08T04:32:43.150Z,100.00
2023-04-08T04:33:45.292Z,100.00
2023-04-08T04:34:47.227Z,100.00
2023-04-08T04:35:49.279Z,100.00
2023-04-08T04:36:51.512Z,100.00
2023-04-08T04:37:53.510Z,100.00
2023-04-08T04:38:55.786Z,100.00
2023-04-08T04:39:57.999Z,100.00
2023-04-08T04:41:00.134Z,100.00
2023-04-08T04:42:02.250Z,100.00
2023-04-08T04:43:05.304Z,100.00
2023-04-08T04:44:07.215Z,100.00
2023-04-08T04:45:09.918Z,100.00
2023-04-08T04:46:12.827Z,100.00
2023-04-08T04:47:14.761Z,100.00
2023-04-08T04:48:16.643Z,100.00
2023-04-08T04:49:18.993Z,100.00
2023-04-08T04:50:21.080Z,100.00
2023-04-08T04:51:22.968Z,100.00
2023-04-08T04:52:24.934Z,100.00
2023-04-08T04:53:28.523Z,100.00
2023-04-08T04:54:31.217Z,100.00
2023-04-08T04:55:33.228Z,100.00
2023-04-08T04:56:35.291Z,100.00
2023-04-08T04:57:37.141Z,100.00
2023-04-08T04:58:39.027Z,100.00
2023-04-08T04:59:41.308Z,100.00
2023-04-08T05:00:43.281Z,100.00
2023-04-08T05:01:45.334Z,100.00
2023-04-08T05:02:47.678Z,100.00
2023-04-08T05:03:49.685Z,100.00
2023-04-08T05:04:51.817Z,100.00
2023-04-08T05:05:54.337Z,100.00
2023-04-08T05:07:00.956Z,100.00
2023-04-08T05:08:03.894Z,100.00
2023-04-08T05:09:05.903Z,100.00
2023-04-08T05:10:09.838Z,100.00
2023-04-08T05:11:11.789Z,100.00
2023-04-08T05:12:13.785Z,100.00
2023-04-08T05:13:16.755Z,100.00
2023-04-08T05:14:18.662Z,100.00
2023-04-08T05:15:21.977Z,100.00
2023-04-08T05:16:24.043Z,100.00
2023-04-08T05:17:26.218Z,100.00
2023-04-08T05:18:28.250Z,100.00
2023-04-08T05:19:30.170Z,100.00
2023-04-08T05:20:32.247Z,100.00
2023-04-08T05:21:34.146Z,100.00
2023-04-08T05:22:36.288Z,100.00
2023-04-08T05:23:38.193Z,100.00
2023-04-08T05:24:40.095Z,100.00
2023-04-08T05:25:42.399Z,100.00
2023-04-08T05:26:44.631Z,100.00
2023-04-08T05:27:46.493Z,100.00
2023-04-08T05:28:51.312Z,100.00
2023-04-08T05:29:53.840Z,100.00
2023-04-08T05:30:55.902Z,100.00
2023-04-08T05:31:59.809Z,100.00
2023-04-08T05:33:01.727Z,99.92
2023-04-08T05:34:03.712Z,99.34
2023-04-08T05:35:06.948Z,99.44
2023-04-08T05:36:10.697Z,100.00
2023-04-08T05:37:12.786Z,100.00
2023-04-08T05:38:14.738Z,100.00
2023-04-08T05:39:20.220Z,99.91
2023-04-08T05:40:22.411Z,99.62
2023-04-08T05:41:24.799Z,98.86
2023-04-08T05:42:26.812Z,98.60
2023-04-08T05:43:28.687Z,98.38
2023-04-08T05:44:31.428Z,97.84
2023-04-08T05:45:33.524Z,97.52
2023-04-08T05:46:35.632Z,96.66
2023-04-08T05:47:37.849Z,95.70
2023-04-08T05:48:39.997Z,95.17
2023-04-08T05:49:41.954Z,94.28
2023-04-08T05:50:44.200Z,93.63
2023-04-08T05:51:46.667Z,93.25
2023-04-08T05:52:48.717Z,93.03
2023-04-08T05:53:54.705Z,92.83
2023-04-08T05:54:56.761Z,92.43
2023-04-08T05:55:58.671Z,92.16
2023-04-08T05:57:00.998Z,92.17
2023-04-08T05:58:02.987Z,92.01
2023-04-08T05:59:04.879Z,91.66
2023-04-08T06:00:10.276Z,91.73
2023-04-08T06:01:12.568Z,91.26
2023-04-08T06:02:14.584Z,90.70
2023-04-08T06:03:19.716Z,90.63
2023-04-08T06:04:20.623Z,90.33
2023-04-08T06:05:22.758Z,90.04
2023-04-08T06:06:25.226Z,89.86
2023-04-08T06:07:29.312Z,89.65
2023-04-08T06:08:31.289Z,89.17
2023-04-08T06:09:36.230Z,89.17
2023-04-08T06:10:38.510Z,88.96
2023-04-08T06:11:41.384Z,89.27
2023-04-08T06:12:44.178Z,88.82
2023-04-08T06:13:46.134Z,88.67
2023-04-08T06:14:50.041Z,88.46
2023-04-08T06:15:52.073Z,88.37
2023-04-08T06:16:54.099Z,88.37
2023-04-08T06:17:56.916Z,88.61
2023-04-08T06:18:59.121Z,88.82
2023-04-08T06:20:01.736Z,89.20
2023-04-08T06:21:03.784Z,89.01
2023-04-08T06:22:05.789Z,89.55
2023-04-08T06:23:08.007Z,88.63
2023-04-08T06:24:09.990Z,89.03
2023-04-08T06:25:13.120Z,89.71
2023-04-08T06:26:15.350Z,89.02
2023-04-08T06:27:17.419Z,90.27
2023-04-08T06:28:19.289Z,89.57
2023-04-08T06:29:22.518Z,88.90
2023-04-08T06:30:24.762Z,89.68
2023-04-08T06:31:26.657Z,90.20
2023-04-08T06:32:28.686Z,89.46
2023-04-08T06:33:31.396Z,89.15
2023-04-08T06:34:34.191Z,90.73
2023-04-08T06:35:37.097Z,91.24
2023-04-08T06:36:39.366Z,90.68
2023-04-08T06:37:41.359Z,90.39
2023-04-08T06:38:43.268Z,90.30
2023-04-08T06:39:45.279Z,89.58
2023-04-08T06:40:47.510Z,89.08
2023-04-08T06:41:49.550Z,88.93
2023-04-08T06:42:52.686Z,89.76
2023-04-08T06:43:55.010Z,90.72
2023-04-08T06:44:57.164Z,89.31
2023-04-08T06:45:59.430Z,87.99
2023-04-08T06:47:01.723Z,87.56
2023-04-08T06:48:05.019Z,86.52
2023-04-08T06:49:06.981Z,85.87
2023-04-08T06:50:09.913Z,85.79
2023-04-08T06:51:11.885Z,85.41
2023-04-08T06:52:15.708Z,85.01
2023-04-08T06:53:17.594Z,84.97
2023-04-08T06:54:19.454Z,84.82
2023-04-08T06:55:21.308Z,84.44
2023-04-08T06:56:23.671Z,85.30
2023-04-08T06:57:25.741Z,85.05
2023-04-08T06:58:27.716Z,84.63
2023-04-08T06:59:29.804Z,84.28
2023-04-08T07:00:31.970Z,84.08
2023-04-08T07:01:33.936Z,83.75
2023-04-08T07:02:36.110Z,83.36
2023-04-08T07:03:38.518Z,83.31
2023-04-08T07:04:40.545Z,83.19
2023-04-08T07:05:42.433Z,82.61
2023-04-08T07:06:44.421Z,82.03
2023-04-08T07:07:46.775Z,81.83
2023-04-08T07:08:48.972Z,81.85
2023-04-08T07:09:51.566Z,81.19
2023-04-08T07:10:53.737Z,81.48
2023-04-08T07:11:55.609Z,81.17
2023-04-08T07:12:57.671Z,81.35
2023-04-08T07:13:59.541Z,81.42
2023-04-08T07:15:01.454Z,81.45
2023-04-08T07:16:04.347Z,81.24
2023-04-08T07:17:06.268Z,81.45
2023-04-08T07:18:08.240Z,81.46
2023-04-08T07:19:10.329Z,81.73
2023-04-08T07:20:13.197Z,81.30
2023-04-08T07:21:15.368Z,81.07
2023-04-08T07:22:17.546Z,80.67
2023-04-08T07:23:20.340Z,80.32
2023-04-08T07:24:23.525Z,80.42
2023-04-08T07:25:25.622Z,80.37
2023-04-08T07:26:27.805Z,80.12
2023-04-08T07:27:29.737Z,79.80
2023-04-08T07:28:31.608Z,80.25
2023-04-08T07:29:33.476Z,79.49
2023-04-08T07:30:35.604Z,79.39
2023-04-08T07:31:38.867Z,81.28
2023-04-08T07:32:40.768Z,81.15
2023-04-08T07:33:44.908Z,81.48
2023-04-08T07:34:46.784Z,81.24
2023-04-08T07:35:48.697Z,80.89
2023-04-08T07:36:50.828Z,80.21
2023-04-08T07:37:52.731Z,79.71
2023-04-08T07:38:54.863Z,80.12
2023-04-08T07:39:56.770Z,79.95
2023-04-08T07:40:58.949Z,79.38
2023-04-08T07:42:00.819Z,79.18
2023-04-08T07:43:02.709Z,78.91
2023-04-08T07:44:04.994Z,78.71
2023-04-08T07:45:08.096Z,78.89
2023-04-08T07:46:10.687Z,78.58
2023-04-08T07:47:13.106Z,78.48
2023-04-08T07:48:15.072Z,79.30
2023-04-08T07:49:17.160Z,78.72
2023-04-08T07:50:19.164Z,78.04
2023-04-08T07:51:21.144Z,77.64
2023-04-08T07:52:23.556Z,78.09
2023-04-08T07:53:25.432Z,77.73
2023-04-08T07:54:27.501Z,77.73
2023-04-08T07:56:44.827Z,76.45
2023-04-08T07:57:47.165Z,76.39
2023-04-08T07:58:51.200Z,76.06
2023-04-08T07:59:53.003Z,75.71
2023-04-08T08:00:55.268Z,74.84
2023-04-08T08:01:57.314Z,74.53
2023-04-08T08:02:59.435Z,75.16
2023-04-08T08:04:01.937Z,74.72
2023-04-08T08:05:05.172Z,74.90
2023-04-08T08:06:07.348Z,75.45
2023-04-08T08:07:09.210Z,75.03
2023-04-08T08:08:11.146Z,74.93
2023-04-08T08:09:13.242Z,74.76
2023-04-08T08:10:15.806Z,74.09
2023-04-08T08:11:18.458Z,73.75
2023-04-08T08:12:20.364Z,73.92
2023-04-08T08:13:22.238Z,75.12
2023-04-08T08:14:24.539Z,74.88
2023-04-08T08:15:26.749Z,74.09
2023-04-08T08:16:32.383Z,73.38
2023-04-08T08:17:34.692Z,73.12
2023-04-08T08:18:37.425Z,72.89
2023-04-08T08:19:39.316Z,73.16
2023-04-08T08:20:41.568Z,73.55
2023-04-08T08:21:43.544Z,73.51
2023-04-08T08:22:54.570Z,72.87
2023-04-08T08:23:52.075Z,72.71
2023-04-08T08:24:58.903Z,72.39
2023-04-08T08:26:06.348Z,73.23
2023-04-08T08:27:13.343Z,72.66
2023-04-08T08:28:15.288Z,73.85
2023-04-08T08:29:17.170Z,73.37
2023-04-08T08:30:19.349Z,72.35
2023-04-08T08:31:21.370Z,71.43
2023-04-08T08:32:23.296Z,70.75
2023-04-08T08:33:25.752Z,71.20
2023-04-08T08:34:29.968Z,71.54
2023-04-08T08:35:32.164Z,71.14
2023-04-08T08:36:35.703Z,70.73
2023-04-08T08:37:37.621Z,70.29
2023-04-08T08:38:40.051Z,70.95
2023-04-08T08:39:41.999Z,70.84
2023-04-08T08:40:45.042Z,70.84
2023-04-08T08:41:47.035Z,70.58
2023-04-08T08:42:52.263Z,71.06
2023-04-08T08:43:55.657Z,71.34
2023-04-08T08:44:59.607Z,71.86
2023-04-08T08:46:01.586Z,73.23
2023-04-08T08:47:04.737Z,72.89
2023-04-08T08:48:09.972Z,73.02
2023-04-08T08:49:12.316Z,71.95
2023-04-08T08:50:14.602Z,71.55
2023-04-08T08:51:18.989Z,72.81
2023-04-08T08:52:21.206Z,71.55
2023-04-08T08:53:35.142Z,71.64
2023-04-08T08:54:35.451Z,71.17
2023-04-08T08:56:42.020Z,69.99
2023-04-08T08:57:43.978Z,69.45
2023-04-08T08:58:46.001Z,70.25
2023-04-08T08:59:48.252Z,71.01
2023-04-08T09:00:50.431Z,71.05
2023-04-08T09:01:52.367Z,70.33
2023-04-08T09:02:54.621Z,68.83
2023-04-08T09:04:09.774Z,66.47
2023-04-08T09:05:12.115Z,65.75
2023-04-08T09:06:17.626Z,66.36
2023-04-08T09:07:23.336Z,68.14
2023-04-08T09:09:50.408Z,65.66
2023-04-08T09:10:56.323Z,66.63
2023-04-08T09:12:05.058Z,66.89
2023-04-08T09:13:07.121Z,65.95
2023-04-08T09:14:23.179Z,65.67
2023-04-08T09:15:25.275Z,65.16
2023-04-08T09:16:27.656Z,64.00
2023-04-08T09:17:39.219Z,64.00
2023-04-08T09:18:41.589Z,64.92
2023-04-08T09:20:08.978Z,64.68
2023-04-08T09:21:13.301Z,64.19
2023-04-08T09:22:15.380Z,63.79
2023-04-08T09:23:19.113Z,64.60
2023-04-08T09:24:29.970Z,64.66
2023-04-08T09:25:33.293Z,64.23
2023-04-08T09:26:36.541Z,64.46
2023-04-08T09:27:38.657Z,63.90
2023-04-08T09:28:42.378Z,63.69
2023-04-08T09:29:44.306Z,63.98
2023-04-08T09:30:46.823Z,64.72
2023-04-08T09:31:55.994Z,64.24
2023-04-08T09:33:00.575Z,62.94
2023-04-08T09:34:11.532Z,62.48
2023-04-08T09:35:13.475Z,62.62
2023-04-08T09:36:17.131Z,62.55
2023-04-08T09:38:31.592Z,64.34
2023-04-08T09:39:33.718Z,64.27
2023-04-08T09:40:37.048Z,63.86
2023-04-08T09:41:40.177Z,63.72
2023-04-08T09:42:47.763Z,64.84
2023-04-08T09:43:53.929Z,65.05
2023-04-08T09:44:57.468Z,65.57
2023-04-08T09:46:02.013Z,66.02
2023-04-08T09:47:11.558Z,66.29
2023-04-08T09:48:20.273Z,65.66
2023-04-08T09:49:31.150Z,65.94
2023-04-08T09:50:37.059Z,65.49
2023-04-08T09:52:04.186Z,66.26
2023-04-08T09:53:10.354Z,66.55
2023-04-08T09:54:16.258Z,66.71
2023-04-08T09:55:21.763Z,67.37
2023-04-08T09:56:28.187Z,67.12
2023-04-08T09:57:56.715Z,67.22
2023-04-08T09:59:01.498Z,67.59
2023-04-08T10:01:22.549Z,68.10
2023-04-08T10:02:28.500Z,68.79
2023-04-08T10:03:40.827Z,68.15
2023-04-08T10:04:45.229Z,68.18
2023-04-08T10:05:49.465Z,68.11
2023-04-08T10:06:55.582Z,67.98
2023-04-08T10:07:58.462Z,67.69
2023-04-08T10:09:02.562Z,67.89
2023-04-08T10:10:06.499Z,67.43
2023-04-08T10:11:09.499Z,66.62
2023-04-08T10:12:11.668Z,66.51
2023-04-08T10:13:14.277Z,66.10
2023-04-08T10:14:16.246Z,66.33
2023-04-08T10:15:33.148Z,66.95
2023-04-08T10:16:35.188Z,67.07
2023-04-08T10:17:37.239Z,66.43
2023-04-08T10:18:39.293Z,65.94
2023-04-08T10:19:41.544Z,65.01
2023-04-08T10:20:46.393Z,65.26
2023-04-08T10:21:48.301Z,64.60
2023-04-08T10:22:50.317Z,63.87
2023-04-08T10:23:54.925Z,63.44
2023-04-08T10:25:19.268Z,63.72
2023-04-08T10:26:41.317Z,62.61
2023-04-08T10:27:44.632Z,62.60
2023-04-08T10:28:46.615Z,62.84
2023-04-08T10:29:48.629Z,63.14
2023-04-08T10:32:03.390Z,64.33
2023-04-08T10:33:14.949Z,64.52
2023-04-08T10:34:22.325Z,64.44
2023-04-08T10:35:39.564Z,63.81
2023-04-08T10:36:42.239Z,63.87
2023-04-08T10:37:44.591Z,63.75
2023-04-08T10:38:48.363Z,63.77
2023-04-08T10:39:50.401Z,63.13
2023-04-08T10:40:54.146Z,63.72
2023-04-08T10:41:56.180Z,63.23
2023-04-08T10:42:59.174Z,63.10
2023-04-08T10:44:04.302Z,62.14
2023-04-08T10:45:08.512Z,62.45
2023-04-08T10:46:11.074Z,62.21
2023-04-08T10:47:13.244Z,61.94
2023-04-08T10:48:21.273Z,61.94
2023-04-08T10:49:26.951Z,61.02
2023-04-08T10:50:30.957Z,61.04
2023-04-08T10:51:33.871Z,61.42
2023-04-08T10:52:38.147Z,61.73
2023-04-08T10:53:40.237Z,61.37
2023-04-08T10:54:45.846Z,61.36
2023-04-08T10:55:48.710Z,61.08
2023-04-08T10:56:52.316Z,61.31
2023-04-08T10:57:55.844Z,61.27
2023-04-08T10:58:58.314Z,60.58
2023-04-08T11:00:00.378Z,59.83
2023-04-08T11:01:06.038Z,59.75
2023-04-08T11:02:13.771Z,59.64
2023-04-08T11:03:16.244Z,59.15
2023-04-08T11:04:18.764Z,59.48
2023-04-08T11:05:22.210Z,59.77
2023-04-08T11:06:24.223Z,58.85
2023-04-08T11:07:26.125Z,58.77
2023-04-08T11:08:32.727Z,59.13
2023-04-08T11:09:34.754Z,58.90
2023-04-08T11:10:39.341Z,58.76
2023-04-08T11:11:43.561Z,58.58
2023-04-08T11:12:45.711Z,59.04
2023-04-08T11:13:53.266Z,59.16
2023-04-08T11:14:52.247Z,59.33
2023-04-08T11:15:56.611Z,58.81
2023-04-08T11:16:58.674Z,58.58
2023-04-08T11:18:01.688Z,58.00
2023-04-08T11:19:05.092Z,57.37
2023-04-08T11:20:09.228Z,57.25
2023-04-08T11:21:14.256Z,56.88
2023-04-08T11:22:16.691Z,56.70
2023-04-08T11:23:19.285Z,56.38
2023-04-08T11:24:22.163Z,55.76
2023-04-08T11:25:25.474Z,55.76
2023-04-08T11:26:32.152Z,54.27
2023-04-08T11:27:34.862Z,52.94
2023-04-08T11:28:38.518Z,51.42
2023-04-08T11:29:41.023Z,50.37
2023-04-08T11:30:45.616Z,50.01
2023-04-08T11:31:47.649Z,50.35
2023-04-08T11:32:50.134Z,50.48
2023-04-08T11:33:54.688Z,50.52
2023-04-08T11:35:03.870Z,50.30
2023-04-08T11:36:06.436Z,50.30
2023-04-08T11:37:08.477Z,49.66
2023-04-08T11:38:13.010Z,49.68
2023-04-08T11:39:15.181Z,49.50
2023-04-08T11:40:20.208Z,49.89
2023-04-08T11:41:22.770Z,50.42
2023-04-08T11:42:30.533Z,50.32
2023-04-08T11:43:45.559Z,50.46
2023-04-08T11:44:49.129Z,50.14
2023-04-08T11:45:52.030Z,50.58
2023-04-08T11:46:58.698Z,51.33
2023-04-08T11:48:16.739Z,51.33
2023-04-08T11:49:21.799Z,51.37
2023-04-08T11:50:25.776Z,51.35
2023-04-08T11:51:28.460Z,51.17
2023-04-08T11:52:47.643Z,51.40
2023-04-08T11:53:52.705Z,51.30
2023-04-08T11:54:57.883Z,51.27
2023-04-08T11:56:20.796Z,51.30
2023-04-08T11:57:40.398Z,51.24
2023-04-08T11:58:46.461Z,51.36
2023-04-08T11:59:50.151Z,51.24
2023-04-08T12:00:55.588Z,51.42
2023-04-08T12:01:57.914Z,51.10
2023-04-08T12:03:01.129Z,50.57
2023-04-08T12:04:03.401Z,49.07
2023-04-08T12:05:09.938Z,48.02
2023-04-08T12:06:14.568Z,48.00
2023-04-08T12:07:17.015Z,48.69
2023-04-08T12:08:21.541Z,47.93
2023-04-08T12:09:23.969Z,47.81
2023-04-08T12:10:27.605Z,47.66
2023-04-08T12:11:30.825Z,48.12
2023-04-08T12:12:32.935Z,48.12
2023-04-08T12:13:35.153Z,48.47
2023-04-08T12:14:37.253Z,48.28
2023-04-08T12:17:07.390Z,49.14
2023-04-08T12:18:10.194Z,49.01
2023-04-08T12:19:14.477Z,49.09
2023-04-08T12:20:20.495Z,48.78
2023-04-08T12:21:24.966Z,48.99
2023-04-08T12:22:32.330Z,49.04
2023-04-08T12:23:37.658Z,49.05
2023-04-08T12:24:41.353Z,48.60
2023-04-08T12:25:43.389Z,48.21
2023-04-08T12:26:45.903Z,47.55
2023-04-08T12:27:53.775Z,46.21
2023-04-08T12:28:56.435Z,46.13
2023-04-08T12:29:59.492Z,46.39
2023-04-08T12:31:09.189Z,46.05
2023-04-08T12:32:15.870Z,46.63
2023-04-08T12:33:20.235Z,46.45
2023-04-08T12:34:28.699Z,46.75
2023-04-08T12:35:34.775Z,45.85
2023-04-08T12:36:52.492Z,49.21
2023-04-08T12:37:57.617Z,50.24
2023-04-08T12:40:22.938Z,48.36
2023-04-08T12:41:42.104Z,46.00
2023-04-08T12:42:46.351Z,45.96
2023-04-08T12:43:52.459Z,46.18
2023-04-08T12:44:56.454Z,46.32
2023-04-08T12:45:58.450Z,46.17
2023-04-08T12:47:03.896Z,46.22
2023-04-08T12:48:06.431Z,46.29
2023-04-08T12:49:09.153Z,46.94
2023-04-08T12:50:14.839Z,47.28
2023-04-08T12:51:16.848Z,48.11
2023-04-08T12:52:23.611Z,48.95
2023-04-08T12:53:26.780Z,49.40
2023-04-08T12:54:28.778Z,50.02
2023-04-08T12:55:34.767Z,50.33
2023-04-08T12:56:43.758Z,50.48
2023-04-08T12:57:47.045Z,50.73
2023-04-08T12:58:53.265Z,51.32
2023-04-08T12:59:57.721Z,51.58
2023-04-08T13:01:07.020Z,52.07
2023-04-08T13:02:18.349Z,52.63
2023-04-08T13:03:25.852Z,53.96
2023-04-08T13:04:30.216Z,55.17
2023-04-08T13:05:43.397Z,60.90
2023-04-08T13:06:39.867Z,63.38
2023-04-08T13:07:45.089Z,69.29
2023-04-08T13:08:49.510Z,66.82
2023-04-08T13:09:54.117Z,69.83
2023-04-08T13:10:57.338Z,73.14
2023-04-08T13:11:59.444Z,74.89
2023-04-08T13:13:01.412Z,76.71
2023-04-08T13:14:03.584Z,78.12
2023-04-08T13:15:13.526Z,80.32
2023-04-08T13:16:19.476Z,81.28
2023-04-08T13:17:32.110Z,83.61
2023-04-08T13:18:42.774Z,83.61
2023-04-08T13:21:29.813Z,86.63
2023-04-08T13:22:48.270Z,86.44
2023-04-08T13:24:10.998Z,86.48
2023-04-08T13:25:23.995Z,86.76
2023-04-08T13:26:30.008Z,85.95
2023-04-08T13:27:44.729Z,85.64
2023-04-08T13:30:52.553Z,86.15
2023-04-08T13:33:33.887Z,85.96
2023-04-08T13:34:38.563Z,83.91
2023-04-08T13:35:45.852Z,82.95
2023-04-08T13:38:13.283Z,87.58
2023-04-08T13:39:28.088Z,88.59
2023-04-08T13:40:35.333Z,89.67
2023-04-08T13:41:44.242Z,89.32
2023-04-08T13:42:58.850Z,89.28
2023-04-08T13:44:13.357Z,89.11
2023-04-08T13:45:28.028Z,88.90
2023-04-08T13:49:39.246Z,86.64
2023-04-08T13:50:43.324Z,85.58
2023-04-08T13:53:30.087Z,86.46
2023-04-08T13:54:24.308Z,85.85
2023-04-08T13:55:28.839Z,77.22